San Antonio, Texas
Traffic Map
Current Weather Conditions
San Antonio, Texas
Few Clouds
Few Clouds
23°
Feels Like: 23°
Wind Chill: 23° Ceiling: Unl
Heat Index: 23° Visibility: 10mi
Dew Point: Wind: 10mph
Humidity: 37% Direction: 150° (SSE)
Pressure: 30.19in Gusts: 0mph
Raw Report DataKSAT 181651Z 15009KT 10SM FEW250 23/08 A3019 RMK AO2 SLP210 T02330078 $
Traffic Incident Summary
Active as of:
Severity:
Category:
InformationThere was an issue retrieving the traffic information for this location. Please try a different location or try again shortly.
Advertisements